• Join FlightAware (Why Join?)
  • Login
  • US Flag 
04:52AM EDT


 

Airport Tracker/Info


-or-


 

Live Flight TrackerFlight Track Log ✈ UAL139 ✈ 21-Oct-2013 ✈ KDEN - RJAA / NRT

Flight Track Log - Related Links

Times and Time Zones

All times are in EDT time to prevent confusion due to time zone crossing. See the UAL139 flight status page for this flight to view local times or setup timezone preferences in your user account.

Time Position Orientation Groundspeed Altitude Reporting Facility
EDT Latitude Longitude Course Direction KTS MPH feet Rate Location/Type
02:36PM 39.8360 -104.6600 174° South 187 215 5,200  Level FlightAware
02:36PM 39.8180 -104.6610 182° South 193 222 6,000 2,520 Climbing FlightAware
02:36PM 39.8110 -104.6640 198° South 189 217 6,400 2,580 Climbing FlightAware
02:36PM 39.8050 -104.6700 218° Southwest 192 221 6,700 1,500 Climbing FlightAware
02:37PM 39.8030 -104.6740 237° Southwest 196 226 6,700 480 Level FlightAware
02:37PM 39.8000 -104.6790 232° Southwest 204 235 6,800 660 Climbing FlightAware
02:37PM 39.7987 -104.6846 253° West 220 253 6,900 900 Climbing FlightAware ADS-B (KEIK)
02:37PM 39.7978 -104.6973 265° West 234 269 7,100 1,380 Climbing FlightAware ADS-B (KEIK)
02:37PM 39.8047 -104.7220 290° West 247 284 7,400 1,920 Climbing FlightAware ADS-B (KEIK)
02:38PM 39.8170 -104.7502 300° West 263 303 8,100 2,280 Climbing FlightAware ADS-B (KEIK)
02:38PM 39.8256 -104.7702 299° West 271 312 8,900 2,280 Climbing FlightAware ADS-B (KEIK)
02:39PM 39.8527 -104.8408 297° West 297 342 10,500 1,920 Climbing FlightAware ADS-B (KEIK)
02:39PM 39.8724 -104.8929 296° West 332 382 11,600 1,440 Climbing FlightAware ADS-B (KEIK)
02:40PM 39.8990 -104.9622 297° West 362 417 12,200 1,560 Climbing FlightAware ADS-B (KEIK)
02:40PM 39.9260 -105.0214 301° West 374 430 13,200 2,400 Climbing FlightAware ADS-B (KEIK)
02:41PM 39.9516 -105.0522 317° Northwest 375 432 14,200 2,580 Climbing FlightAware ADS-B (KEIK)
02:41PM 40.0134 -105.0836 339° North 389 448 15,800 2,220 Climbing FlightAware ADS-B (KEIK)
02:41PM 40.0338 -105.0852 357° North 393 452 16,100 2,460 Climbing FlightAware ADS-B (KEIK)
02:42PM 40.1024 -105.0707 North 397 457 17,800 2,640 Climbing FlightAware ADS-B (KANK)
02:43PM 40.1616 -105.0549 12° North 394 453 19,200 2,400 Climbing FlightAware ADS-B (KANK)
02:43PM 40.2019 -105.0438 12° North 400 460 20,300 2,100 Climbing FlightAware ADS-B (KEIK)
02:44PM 40.2900 -105.0200 12° North 405 466 21,700 1,920 Climbing FlightAware ADS-B (KEIK)
02:44PM 40.3180 -105.0123 12° North 408 470 22,100 1,740 Climbing FlightAware ADS-B (KANK)
02:45PM 40.3784 -105.0050 North 409 471 23,200 1,800 Climbing FlightAware ADS-B (KEIK)
02:45PM 40.4537 -105.0159 354° North 413 475 24,300 1,680 Climbing FlightAware ADS-B (KEIK)
02:46PM 40.4936 -105.0225 353° North 417 480 25,200 1,620 Climbing FlightAware ADS-B (KEIK)
02:46PM 40.5650 -105.0344 353° North 421 484 26,000 1,680 Climbing FlightAware ADS-B (KEIK)
02:47PM 40.6397 -105.0469 353° North 425 489 27,000 1,740 Climbing FlightAware ADS-B (KEIK)
02:47PM 40.6948 -105.0562 353° North 425 489 27,900 1,440 Climbing FlightAware ADS-B (KEIK)
02:48PM 40.7455 -105.0675 350° North 428 493 28,400 1,080 Climbing FlightAware ADS-B (KEIK)
02:48PM 40.7455 -105.0675 350° North 429 494 28,600 1,200 Climbing FlightAware ADS-B (KEIK)
02:48PM 40.8015 -105.1089 331° Northwest 437 503 29,000 1,380 Climbing FlightAware ADS-B (KEIK)
02:49PM 40.8423 -105.1551 319° Northwest 436 502 29,800 1,740 Climbing FlightAware ADS-B (KEIK)
02:49PM 40.9068 -105.2357 317° Northwest 430 495 31,100 2,220 Climbing FlightAware ADS-B (KEIK)
02:50PM 40.9133 -105.2457 311° West 433 498 31,800 900 Climbing FlightAware ADS-B (KEIK)
02:50PM 40.9606 -105.3295 307° West 435 501 31,800 600 Level FlightAware ADS-B (KANK)
02:51PM 41.0160 -105.4301 306° West 443 510 32,600 1,020 Climbing FlightAware ADS-B (KEIK)
02:52PM 41.0610 -105.5120 306° West 445 512 33,300 840 Climbing FlightAware
02:52PM 41.0736 -105.5352 306° West 451 519 33,300 780 Level FlightAware ADS-B (KEIK)
02:53PM 41.1430 -105.6630 306° West 452 520 34,200 900 Climbing FlightAware
02:53PM 41.1733 -105.7189 306° West 453 521 34,600 1,020 Climbing FlightAware ADS-B (KEIK)
02:54PM 41.2370 -105.8360 306° West 451 519 35,500 1,020 Climbing FlightAware
02:54PM 41.2444 -105.8498 306° West 451 519 35,600 420 Climbing FlightAware ADS-B (KEIK)
02:55PM 41.3220 -105.9860 307° West 449 517 36,000 240 Climbing FlightAware
02:56PM 41.3650 -106.0620 307° West 447 514 36,000  Level FlightAware
02:56PM 41.4120 -106.1450 307° West 448 516 36,000  Level FlightAware
02:57PM 41.4520 -106.2160 307° West 448 516 36,000  Level FlightAware
02:58PM 41.5040 -106.3100 306° West 451 519 36,000  Level FlightAware
02:58PM 41.5490 -106.3900 307° West 452 520 36,000  Level FlightAware
02:59PM 41.5930 -106.4690 307° West 450 518 36,000  Level FlightAware
02:59PM 41.6300 -106.5380 306° West 449 517 36,000  Level FlightAware
03:00PM 41.6680 -106.6070 306° West 449 517 36,000  Level FlightAware
03:01PM 41.7030 -106.6720 306° West 449 517 36,000  Level FlightAware
03:01PM 41.7400 -106.7410 306° West 449 517 36,000  Level FlightAware
03:02PM 41.7790 -106.8120 306° West 449 517 36,000  Level FlightAware
03:02PM 41.8160 -106.8810 306° West 449 517 36,000  Level FlightAware
03:03PM 41.8540 -106.9520 306° West 449 517 36,000  Level FlightAware
03:04PM 41.8920 -107.0210 307° West 449 517 36,000  Level FlightAware
03:04PM 41.9290 -107.0900 306° West 449 517 36,000  Level FlightAware
03:05PM 41.9540 -107.1360 306° West 449 517 36,000  Level FlightAware
03:05PM 41.9910 -107.2050 306° West 449 517 36,000  Level FlightAware
03:06PM 42.0270 -107.2700 307° West 449 517 36,000  Level FlightAware
03:06PM 42.0740 -107.3590 305° West 449 517 36,000  Level FlightAware
03:07PM 42.1130 -107.4300 307° West 449 517 36,000  Level FlightAware
03:08PM 42.1510 -107.5010 306° West 449 517 36,000  Level FlightAware
03:08PM 42.1860 -107.5670 306° West 449 517 36,000  Level FlightAware
03:09PM 42.2220 -107.6320 307° West 449 517 36,000  Level FlightAware
03:10PM 42.3597 -107.8842 307° West 442 509 36,000  Level Salt Lake Center
03:11PM 42.4408 -108.0361 306° West 448 516 36,000  Level Salt Lake Center
03:12PM 42.5094 -108.1661 306° West 447 514 36,000  Level Salt Lake Center
03:13PM 42.5892 -108.3211 305° West 448 516 36,000  Level Salt Lake Center
03:14PM 42.6597 -108.4528 306° West 450 518 36,000  Level Salt Lake Center
03:15PM 42.7267 -108.5847 305° West 449 517 36,000  Level Salt Lake Center
03:16PM 42.8064 -108.7381 305° West 446 513 36,000  Level Salt Lake Center
03:17PM 42.8744 -108.8714 305° West 449 517 36,000  Level Salt Lake Center
03:18PM 42.9539 -109.0267 305° West 447 514 36,000  Level Salt Lake Center
03:19PM 43.0181 -109.1536 305° West 447 514 36,000  Level Salt Lake Center
03:20PM 43.1031 -109.3211 305° West 448 516 36,000  Level Salt Lake Center
03:21PM 43.1742 -109.4614 305° West 450 518 36,000  Level Salt Lake Center
03:22PM 43.2447 -109.6028 304° West 450 518 36,000  Level Salt Lake Center
03:23PM 43.3158 -109.7444 305° West 451 519 36,000  Level Salt Lake Center
03:24PM 43.3942 -109.9008 305° West 453 521 36,000  Level Salt Lake Center
03:25PM 43.4619 -110.0353 305° West 449 517 36,000  Level Salt Lake Center
03:26PM 43.5336 -110.1847 304° West 455 524 36,000  Level Salt Lake Center
03:27PM 43.6133 -110.3453 304° West 456 525 36,000  Level Salt Lake Center
03:28PM 43.6819 -110.4836 304° West 456 525 36,000  Level Salt Lake Center
03:29PM 43.7514 -110.6242 304° West 461 531 36,000  Level Salt Lake Center
03:30PM 43.8300 -110.7906 303° West 462 532 36,000  Level Salt Lake Center
03:31PM 43.8975 -110.9317 304° West 459 528 36,000  Level Salt Lake Center
03:32PM 43.9750 -111.0964 303° West 457 526 36,000  Level Salt Lake Center
03:37PM 44.3460 -111.8860 303° West 459 528 36,000  Level FlightAware
03:38PM 44.3830 -111.9640 304° West 460 529 36,000  Level FlightAware
03:39PM 44.4360 -112.0810 302° West 460 529 36,000  Level FlightAware
03:39PM 44.4700 -112.1590 301° West 460 529 36,000  Level FlightAware
03:40PM 44.5050 -112.2360 303° West 460 529 36,000  Level FlightAware
03:41PM 44.5390 -112.3130 302° West 460 529 36,000  Level FlightAware
03:41PM 44.5760 -112.3950 302° West 460 529 36,000  Level FlightAware
03:42PM 44.6110 -112.4750 302° West 460 529 36,000  Level FlightAware
03:43PM 44.6460 -112.5530 302° West 460 529 36,000  Level FlightAware
03:43PM 44.6800 -112.6300 302° West 460 529 36,000  Level FlightAware
03:44PM 44.7150 -112.7080 302° West 460 529 36,000  Level FlightAware
03:44PM 44.7490 -112.7860 302° West 460 529 36,000  Level FlightAware
03:45PM 44.8560 -113.0090 304° West 468 539 36,000  Level FlightAware
03:45PM 44.9000 -113.1090 302° West 467 537 36,000  Level FlightAware
03:46PM 44.9380 -113.1920 303° West 468 539 36,000  Level FlightAware
03:47PM 44.9800 -113.2880 302° West 470 541 36,000  Level FlightAware
03:48PM 45.0360 -113.4170 302° West 471 542 36,000  Level FlightAware
03:48PM 45.0700 -113.4980 301° West 471 542 36,000  Level FlightAware
03:49PM 45.1040 -113.5790 301° West 471 542 36,000  Level FlightAware
03:49PM 45.1390 -113.6600 302° West 471 542 36,000  Level FlightAware
03:50PM 45.1730 -113.7410 301° West 471 542 36,000  Level FlightAware
03:51PM 45.2070 -113.8220 301° West 471 542 36,000  Level FlightAware
03:51PM 45.2420 -113.9040 301° West 471 542 36,000  Level FlightAware
03:52PM 45.2740 -113.9800 301° West 471 542 36,000  Level FlightAware
03:52PM 45.3100 -114.0660 301° West 471 542 36,000  Level FlightAware
03:53PM 45.3440 -114.1450 302° West 471 542 36,000  Level FlightAware
03:54PM 45.3780 -114.2260 301° West 471 542 36,000  Level FlightAware
03:54PM 45.4130 -114.3100 301° West 471 542 36,000  Level FlightAware
03:55PM 45.4460 -114.3870 301° West 471 542 36,000  Level FlightAware
03:55PM 45.4810 -114.4710 301° West 471 542 36,000  Level FlightAware
03:56PM 45.5150 -114.5520 301° West 471 542 36,000  Level FlightAware
03:57PM 45.5500 -114.6340 301° West 471 542 36,000  Level FlightAware
04:00PM 45.8800 -115.4080 302° West 478 550 36,000  Level FlightAware
04:00PM 45.9030 -115.4660 300° West 480 552 36,000  Level FlightAware
04:01PM 45.9450 -115.5690 300° West 480 552 36,000  Level FlightAware
04:02PM 45.9910 -115.6820 300° West 480 552 36,000  Level FlightAware
04:02PM 46.0320 -115.7830 300° West 481 554 36,000  Level FlightAware
04:03PM 46.0690 -115.8740 300° West 482 555 36,000  Level FlightAware
04:03PM 46.1120 -115.9830 300° West 483 556 36,000  Level FlightAware
04:04PM 46.1490 -116.0760 300° West 484 557 36,000  Level FlightAware
04:04PM 46.1870 -116.1720 300° West 485 558 36,000  Level FlightAware
04:05PM 46.2410 -116.3090 300° West 485 558 36,000  Level FlightAware
04:06PM 46.2750 -116.3980 299° West 485 558 36,000  Level FlightAware
04:07PM 46.3280 -116.5280 301° West 486 559 36,000  Level FlightAware
04:07PM 46.3650 -116.6220 300° West 485 558 36,000  Level FlightAware
04:08PM 46.4060 -116.7280 299° West 483 556 36,000  Level FlightAware
04:08PM 46.4470 -116.8330 300° West 481 554 36,000  Level FlightAware
04:09PM 46.4770 -116.9090 300° West 479 551 36,000  Level FlightAware
04:10PM 46.5290 -117.0460 299° West 479 551 36,000  Level FlightAware
04:10PM 46.5620 -117.1330 299° West 479 551 36,000  Level FlightAware
04:11PM 46.5990 -117.2290 299° West 479 551 36,000  Level FlightAware
04:12PM 46.6700 -117.4130 299° West 478 550 36,000  Level FlightAware
04:12PM 46.7050 -117.5050 299° West 479 551 36,000  Level FlightAware
04:13PM 46.7450 -117.6120 299° West 480 552 36,000  Level FlightAware
04:14PM 46.7810 -117.7080 299° West 481 554 36,000  Level FlightAware
04:14PM 46.8200 -117.8120 299° West 481 554 36,000  Level FlightAware
04:15PM 46.8710 -117.9490 299° West 481 554 36,000  Level FlightAware
04:16PM 46.9050 -118.0410 298° West 481 554 36,000  Level FlightAware
04:16PM 46.9450 -118.1480 299° West 483 556 36,000  Level FlightAware
04:17PM 46.9860 -118.2580 299° West 482 555 36,000  Level FlightAware
04:17PM 47.0200 -118.3530 298° West 483 556 36,000  Level FlightAware
04:18PM 47.0550 -118.4470 299° West 484 557 36,000  Level FlightAware
04:19PM 47.0940 -118.5540 298° West 484 557 36,000  Level FlightAware
04:19PM 47.1280 -118.6470 298° West 485 558 36,000  Level FlightAware
04:20PM 47.1630 -118.7440 298° West 484 557 36,000  Level FlightAware
04:20PM 47.1967 -118.8380 298° West 485 558 36,000  Level FlightAware ADS-B
04:21PM 47.2280 -118.9260 298° West 486 559 36,000  Level FlightAware ADS-B
04:21PM 47.2604 -119.0160 298° West 486 559 36,000  Level FlightAware ADS-B
04:22PM 47.2998 -119.1260 298° West 486 559 36,000  Level FlightAware ADS-B
04:22PM 47.3315 -119.2150 298° West 486 559 36,000  Level FlightAware ADS-B
04:23PM 47.3634 -119.3060 297° West 486 559 36,000  Level FlightAware ADS-B
04:23PM 47.3953 -119.3960 298° West 487 560 36,000  Level FlightAware ADS-B
04:24PM 47.4267 -119.4850 298° West 489 563 36,000  Level FlightAware ADS-B
04:24PM 47.4584 -119.5760 297° West 489 563 36,000  Level FlightAware ADS-B
04:25PM 47.4898 -119.6660 297° West 489 563 36,000  Level FlightAware ADS-B
04:25PM 47.5208 -119.7550 297° West 490 564 36,000  Level FlightAware ADS-B
04:26PM 47.5523 -119.8450 297° West 491 565 36,000  Level FlightAware ADS-B
04:26PM 47.5835 -119.9350 297° West 492 566 36,000  Level FlightAware ADS-B
04:27PM 47.6143 -120.0250 297° West 492 566 36,000  Level FlightAware ADS-B
04:27PM 47.6477 -120.1221 297° West 492 566 36,000  Level FlightAware ADS-B (CYWH)
04:27PM 47.6508 -120.1310 297° West 492 566 36,000  Level FlightAware ADS-B
04:28PM 47.6819 -120.2220 297° West 491 565 36,000  Level FlightAware ADS-B
04:28PM 47.6826 -120.2245 294° West 491 565 36,000  Level FlightAware ADS-B (EPKK / KRK)
04:28PM 47.7124 -120.3120 297° West 491 565 36,000  Level FlightAware ADS-B
04:29PM 47.7369 -120.3841 297° West 488 562 36,000  Level FlightAware ADS-B (CYWH)
04:29PM 47.7431 -120.4020 297° West 491 565 36,000  Level FlightAware ADS-B
04:29PM 47.7650 -120.4670 297° West 491 565 36,000  Level FlightAware ADS-B
04:29PM 47.7697 -120.4810 297° West 488 562 36,000  Level FlightAware ADS-B (CYWH)
04:30PM 47.7957 -120.5580 297° West 491 565 36,000  Level FlightAware ADS-B
04:30PM 47.8266 -120.6500 297° West 491 565 36,000  Level FlightAware ADS-B
04:31PM 47.8437 -120.7007 297° West 487 560 36,000  Level FlightAware ADS-B (CYWH)
04:31PM 47.8573 -120.7410 297° West 491 565 36,000  Level FlightAware ADS-B
04:31PM 47.8815 -120.8136 296° West 488 562 36,000  Level FlightAware ADS-B (CYWH)
04:31PM 47.8879 -120.8330 296° West 491 565 36,000  Level FlightAware ADS-B
04:32PM 47.9183 -120.9240 297° West 491 565 36,000  Level FlightAware ADS-B
04:32PM 47.9484 -121.0150 296° West 490 564 36,000  Level FlightAware ADS-B
04:32PM 47.9528 -121.0282 296° West 487 560 36,000  Level FlightAware ADS-B (CYWH)
04:33PM 47.9688 -121.0766 296° West 487 560 36,000  Level FlightAware ADS-B (CYWH)
04:33PM 47.9788 -121.1070 296° West 491 565 36,000  Level FlightAware ADS-B
04:33PM 47.9979 -121.1651 296° West 491 565 36,000  Level FlightAware ADS-B (EPKK / KRK)
04:33PM 48.0071 -121.1930 296° West 491 565 36,000  Level FlightAware ADS-B
04:33PM 48.0159 -121.2196 296° West 491 565 36,000  Level FlightAware ADS-B (EPKK / KRK)
04:34PM 48.0400 -121.2930 296° West 491 565 36,000  Level FlightAware ADS-B
04:34PM 48.0688 -121.3813 296° West 488 562 36,000  Level FlightAware ADS-B (CYWH)
04:34PM 48.0698 -121.3840 300° West 492 566 36,000  Level FlightAware ADS-B
04:34PM 48.0761 -121.4038 296° West 492 566 36,000  Level FlightAware ADS-B (EPKK / KRK)
04:35PM 48.0995 -121.4760 296° West 492 566 36,000  Level FlightAware ADS-B
04:35PM 48.1089 -121.5044 296° West 491 565 36,000  Level FlightAware ADS-B (CYWH)
04:35PM 48.1296 -121.5680 296° West 492 566 36,000  Level FlightAware ADS-B
04:36PM 48.1411 -121.6039 296° West 489 563 36,000  Level FlightAware ADS-B (CYWH)
04:36PM 48.1595 -121.6610 296° West 492 566 36,000  Level FlightAware ADS-B
04:36PM 48.1710 -121.6962 296° West 492 566 36,000  Level FlightAware ADS-B (CYWH)
04:36PM 48.1895 -121.7540 296° West 492 566 36,000  Level FlightAware ADS-B
04:37PM 48.2012 -121.7905 296° West 492 566 36,000  Level FlightAware ADS-B (EPKK / KRK)
04:37PM 48.2191 -121.8460 296° West 491 565 36,000  Level FlightAware ADS-B
04:37PM 48.2408 -121.9143 296° West 492 566 36,000  Level FlightAware ADS-B (CYWH)
04:37PM 48.2493 -121.9410 295° West 492 566 36,000  Level FlightAware ADS-B
04:38PM 48.2677 -121.9985 296° West 493 567 36,000  Level FlightAware ADS-B (EPKK / KRK)
04:38PM 48.2783 -122.0320 295° West 493 567 36,000  Level FlightAware ADS-B
04:38PM 48.3017 -122.1055 296° West 492 566 36,000  Level FlightAware ADS-B (CYWH)
04:38PM 48.3086 -122.1270 296° West 492 566 36,000  Level FlightAware ADS-B
04:39PM 48.3315 -122.1996 295° West 491 565 36,000  Level FlightAware ADS-B (CYWH)
04:39PM 48.3383 -122.2210 296° West 491 565 36,000  Level FlightAware ADS-B
04:39PM 48.3629 -122.2992 295° West 491 565 36,000  Level FlightAware ADS-B (CYWH)
04:39PM 48.3676 -122.3140 295° West 491 565 36,000  Level FlightAware ADS-B
04:40PM 48.3927 -122.3940 295° West 491 565 36,000  Level FlightAware ADS-B (CYWH)
04:40PM 48.3994 -122.4160 295° West 491 565 36,000  Level FlightAware ADS-B
04:40PM 48.4210 -122.4846 295° West 489 563 36,000  Level FlightAware ADS-B (EPKK / KRK)
04:41PM 48.4406 -122.5470 295° West 489 563 36,000  Level FlightAware ADS-B
04:41PM 48.4498 -122.5769 295° West 489 563 36,000  Level FlightAware ADS-B (EPKK / KRK)
04:41PM 48.4701 -122.6420 295° West 490 564 36,000  Level FlightAware ADS-B
04:41PM 48.4730 -122.6514 295° West 491 565 36,000  Level FlightAware ADS-B (EPKK / KRK)
04:42PM 48.4991 -122.7360 295° West 492 566 36,000  Level FlightAware ADS-B
04:42PM 48.5115 -122.7760 295° West 492 566 36,000  Level FlightAware ADS-B (EPKK / KRK)
04:42PM 48.5278 -122.8290 295° West 490 564 36,000  Level FlightAware ADS-B
04:42PM 48.5378 -122.8614 295° West 490 564 36,000  Level FlightAware ADS-B (EPKK / KRK)
04:43PM 48.5568 -122.9230 295° West 490 564 36,000  Level FlightAware ADS-B
04:43PM 48.5647 -122.9493 295° West 489 563 36,000  Level FlightAware ADS-B (EPKK / KRK)
04:43PM 48.5855 -123.0170 295° West 489 563 36,000  Level FlightAware ADS-B
04:43PM 48.5946 -123.0469 295° West 489 563 36,000  Level FlightAware ADS-B (EPKK / KRK)
04:44PM 48.6139 -123.1100 295° West 488 562 36,000  Level FlightAware ADS-B
04:44PM 48.6251 -123.1469 295° West 488 562 36,000  Level FlightAware ADS-B (EPKK / KRK)
04:44PM 48.6432 -123.2060 295° West 488 562 36,000  Level FlightAware ADS-B
04:44PM 48.6532 -123.2396 294° West 488 562 36,000  Level FlightAware ADS-B (EPKK / KRK)
04:45PM 48.6712 -123.2990 295° West 488 562 36,000  Level FlightAware ADS-B
04:45PM 48.6927 -123.3703 295° West 486 559 36,000  Level FlightAware ADS-B (CYCD)
04:45PM 48.7023 -123.4019 295° West 486 559 36,000  Level FlightAware ADS-B (CYCD)
04:45PM 48.7130 -123.4370 295° West 490 564 36,000  Level FlightAware ADS-B
04:46PM 48.7285 -123.4830 297° West 490 564 36,000  Level FlightAware ADS-B (EPKK / KRK)
04:46PM 48.7438 -123.5251 299° West 491 565 36,000  Level FlightAware ADS-B (CYCD)
04:46PM 48.7555 -123.5552 300° West 487 560 36,000  Level FlightAware ADS-B (CYCD)
04:46PM 48.7706 -123.5930 301° West 491 565 36,000  Level FlightAware ADS-B
04:47PM 48.7911 -123.6437 302° West 487 560 36,000  Level FlightAware ADS-B (CYCD)
04:47PM 48.8054 -123.6800 301° West 491 565 36,000  Level FlightAware ADS-B
04:47PM 48.8272 -123.7343 301° West 488 562 36,000  Level FlightAware ADS-B (CYCD)
04:47PM 48.8415 -123.7700 301° West 492 566 36,000  Level FlightAware ADS-B
04:47PM 48.8465 -123.7826 301° West 488 562 36,000  Level FlightAware ADS-B (CYWH)
04:48PM 48.8563 -123.8074 301° West 492 566 36,000  Level FlightAware ADS-B (EPKK / KRK)
04:48PM 48.8776 -123.8610 301° West 492 566 36,000  Level FlightAware ADS-B
04:48PM 48.8811 -123.8698 301° West 488 562 36,000  Level FlightAware ADS-B (CYWH)
04:48PM 48.8924 -123.8981 301° West 487 560 36,000  Level FlightAware ADS-B (CYWH)
04:49PM 48.9253 -123.9811 301° West 491 565 36,000  Level FlightAware ADS-B (EPKK / KRK)
04:49PM 48.9300 -123.9930 301° West 490 564 36,000  Level FlightAware ADS-B
04:49PM 48.9526 -124.0501 301° West 487 560 36,000  Level FlightAware ADS-B (CYWH)
04:49PM 48.9642 -124.0797 301° West 487 560 36,000  Level FlightAware ADS-B (CYCD)
04:49PM 48.9665 -124.0860 299° West 491 565 36,000  Level FlightAware ADS-B
04:49PM 48.9767 -124.1116 301° West 487 560 36,000  Level FlightAware ADS-B (CYCD)
04:49PM 48.9804 -124.1210 301° West 490 564 36,000  Level FlightAware ADS-B
04:49PM 48.9884 -124.1412 301° West 487 560 36,000  Level FlightAware ADS-B (CYCD)
04:50PM 48.9965 -124.1620 301° West 490 564 36,000  Level FlightAware ADS-B
04:50PM 49.0102 -124.1969 301° West 487 560 36,000  Level FlightAware ADS-B (CYCD)
04:50PM 49.0218 -124.2265 301° West 488 562 36,000  Level FlightAware ADS-B (CYCD)
04:50PM 49.0317 -124.2520 301° West 492 566 36,000  Level FlightAware ADS-B
04:50PM 49.0520 -124.3037 301° West 488 562 36,000  Level FlightAware ADS-B (CYWH)
04:51PM 49.0682 -124.3450 301° West 492 566 36,000  Level FlightAware ADS-B
04:51PM 49.0706 -124.3512 300° West 491 565 36,000  Level FlightAware ADS-B (EPKK / KRK)
04:51PM 49.1300 -124.5037 301° West 487 560 36,000  Level FlightAware ADS-B (CYCD)
04:52PM 49.1644 -124.5928 301° West 492 566 36,000  Level FlightAware ADS-B (EPKK / KRK)
04:52PM 49.1895 -124.6580 301° West 491 565 36,000  Level FlightAware ADS-B
04:53PM 49.2170 -124.7291 301° West 494 568 36,000  Level FlightAware ADS-B (EPKK / KRK)
04:53PM 49.2583 -124.8371 300° West 494 568 36,000  Level FlightAware ADS-B (EPKK / KRK)
04:54PM 49.2967 -124.9375 300° West 489 563 36,000  Level FlightAware ADS-B (CYCD)
04:54PM 49.3328 -125.0324 300° West 492 566 36,000  Level FlightAware ADS-B (EPKK / KRK)
04:55PM 49.3715 -125.1344 300° West 491 565 36,000  Level FlightAware ADS-B (CYCD)
04:55PM 49.4015 -125.2138 300° West 491 565 36,000  Level FlightAware ADS-B (EPKK / KRK)
04:56PM 49.4509 -125.3450 300° West 491 565 36,000  Level FlightAware ADS-B (CYCD)
04:57PM 49.4840 -125.4336 300° West 490 564 36,000  Level FlightAware ADS-B (EPKK / KRK)
04:57PM 49.5178 -125.5240 300° West 490 564 36,000  Level FlightAware ADS-B (EPKK / KRK)
04:58PM 49.5553 -125.6247 300° West 490 564 36,000  Level FlightAware ADS-B (CYCD)
04:58PM 49.5806 -125.6928 300° West 489 563 36,000  Level FlightAware ADS-B (EPKK / KRK)
04:59PM 49.6292 -125.8246 300° West 489 563 36,000  Level FlightAware ADS-B (EPKK / KRK)
05:00PM 49.6711 -125.9384 300° West 488 562 36,000  Level FlightAware ADS-B (EPKK / KRK)
05:00PM 49.7195 -126.0707 300° West 487 560 36,000  Level FlightAware ADS-B (EPKK / KRK)
05:01PM 49.7820 -126.2430 299° West 487 560 36,000  Level FlightAware
05:02PM 49.8210 -126.3500 299° West 486 559 36,000  Level FlightAware
05:03PM 49.8750 -126.4990 299° West 486 559 36,000  Level FlightAware
05:03PM 49.9080 -126.5920 299° West 486 559 36,000 360 Level FlightAware
05:04PM 49.9620 -126.7450 299° West 487 560 36,500 720 Climbing FlightAware
05:04PM 50.0010 -126.8520 300° West 484 557 37,100 900 Climbing FlightAware
05:05PM 50.0630 -127.0280 299° West 481 554 38,000 480 Climbing FlightAware
05:06PM 50.1110 -127.1670 298° West 479 551 38,000  Level FlightAware
05:07PM 50.1580 -127.3010 299° West 475 547 38,000  Level FlightAware
05:07PM 50.1900 -127.3920 299° West 475 547 38,000  Level FlightAware
05:08PM 50.2250 -127.4950 298° West 475 547 38,000  Level FlightAware
05:09PM 50.2560 -127.5880 298° West 475 547 38,000  Level FlightAware
05:09PM 50.2900 -127.7200 292° West 474 545 38,000  Level FlightAware
05:10PM 50.3280 -127.8590 293° West 474 545 38,000  Level FlightAware
05:11PM 50.3610 -127.9870 292° West 474 545 38,000  Level FlightAware
05:12PM 50.3960 -128.1250 292° West 474 545 38,000  Level FlightAware
05:12PM 50.4240 -128.2340 292° West 474 545 38,000  Level FlightAware
05:13PM 50.4510 -128.3370 292° West 474 545 38,000  Level FlightAware
05:13PM 50.4760 -128.4340 292° West 474 545 38,000  Level FlightAware
05:14PM 50.5010 -128.5320 292° West 474 545 38,000  Level FlightAware
05:15PM 50.5270 -128.6330 292° West 474 545 38,000  Level FlightAware
05:15PM 50.5520 -128.7310 292° West 474 545 38,000  Level FlightAware
05:16PM 50.5770 -128.8290 292° West 474 545 38,000  Level FlightAware
05:16PM 50.6020 -128.9270 292° West 474 545 38,000  Level FlightAware
05:17PM 50.6270 -129.0250 292° West 474 545 38,000  Level FlightAware
05:18PM 50.6520 -129.1200 293° West 474 545 38,000  Level FlightAware
05:18PM 50.6770 -129.2210 291° West 474 545 38,000  Level FlightAware
05:19PM 50.7030 -129.3190 293° West 474 545 38,000  Level FlightAware
05:19PM 50.7280 -129.4170 292° West 474 545 38,000  Level FlightAware
05:20PM 50.7530 -129.5160 292° West 474 545 38,000  Level FlightAware
05:21PM 50.7790 -129.6170 292° West 474 545 38,000  Level FlightAware
05:21PM 50.8040 -129.7150 292° West 474 545 38,000  Level FlightAware
05:22PM 50.8833 -130.1833 292° West 470 541 38,000  Level Vancouver Center
05:23PM 50.9167 -130.3667 286° West 470 541 38,000  Level Vancouver Center
05:24PM 50.9833 -130.5667 298° West 470 541 38,000  Level Vancouver Center
05:25PM 51.0167 -130.7667 285° West 470 541 38,000  Level Vancouver Center
05:26PM 51.0500 -130.9833 284° West 460 529 38,000  Level Vancouver Center
05:27PM 51.1167 -131.1500 303° West 460 529 38,000  Level Vancouver Center
05:28PM 51.1500 -131.3667 284° West 460 529 38,000  Level Vancouver Center
05:29PM 51.1833 -131.5333 288° West 450 518 38,000  Level Vancouver Center
05:30PM 51.2500 -131.7333 298° West 470 541 38,000  Level Vancouver Center
05:31PM 51.2833 -131.9167 286° West 460 529 38,000  Level Vancouver Center
05:32PM 51.3167 -132.1167 285° West 460 529 38,000  Level Vancouver Center
05:33PM 51.3500 -132.3167 285° West 460 529 38,000  Level Vancouver Center
05:34PM 51.4000 -132.5167 292° West 460 529 38,000  Level Vancouver Center
05:35PM 51.4333 -132.7000 286° West 460 529 38,000  Level Vancouver Center
05:36PM 51.4833 -132.8667 296° West 460 529 38,000  Level Vancouver Center
05:37PM 51.5167 -133.1000 283° West 460 529 38,000  Level Vancouver Center
05:38PM 51.5667 -133.2667 296° West 460 529 38,000  Level Vancouver Center
05:39PM 51.6000 -133.5000 283° West 470 541 38,000  Level Vancouver Center
05:40PM 51.6333 -133.6667 288° West 460 529 38,000  Level Vancouver Center
05:41PM 51.6833 -133.8833 290° West 460 529 38,000  Level Vancouver Center
05:42PM 51.7167 -134.0667 286° West 460 529 38,000  Level Vancouver Center
05:43PM 51.7500 -134.2833 284° West 460 529 38,000  Level Vancouver Center
05:44PM 51.7833 -134.4500 288° West 460 529 38,000  Level Vancouver Center
05:45PM 51.8333 -134.6667 291° West 460 529 38,000  Level Vancouver Center
05:46PM 51.8667 -134.8500 286° West 450 518 38,000  Level Vancouver Center
05:47PM 51.9000 -135.0333 286° West 450 518 38,000  Level Vancouver Center
05:48PM 51.9333 -135.2333 285° West 450 518 38,000  Level Vancouver Center
05:49PM 51.9833 -135.4333 292° West 450 518 38,000  Level Vancouver Center
05:50PM 52.0000 -135.4500 292° West 449 517 38,000  Level Oakland Oceanic (ODAPS)
05:51PM 52.0500 -135.8167 292° West 450 518 38,000  Level Vancouver Center
05:52PM 52.1000 -136.0167 292° West 450 518 38,000  Level Vancouver Center
05:53PM 52.1333 -136.1833 288° West 450 518 38,000  Level Vancouver Center
05:54PM 52.1833 -136.3667 294° West 450 518 38,000  Level Vancouver Center
05:55PM 52.2333 -136.5667 292° West 440 506 38,000  Level Vancouver Center
05:56PM 52.2833 -136.7500 294° West 450 518 38,000  Level Vancouver Center
05:57PM 52.3167 -136.9333 287° West 440 506 38,000  Level Vancouver Center
05:58PM 52.3500 -137.1333 285° West 450 518 38,000  Level Vancouver Center
05:59PM 52.4000 -137.3167 294° West 450 518 38,000  Level Vancouver Center
06:00PM 52.4500 -137.5000 294° West 440 506 38,000  Level Vancouver Center
06:01PM 52.4833 -137.7000 285° West 430 495 38,000  Level Vancouver Center
06:01PM 52.5167 -137.6667 290° West 444 511 38,000  Level Oakland Oceanic (ODAPS)
06:02PM 52.5167 -137.8833 290° West 440 506 38,000  Level Vancouver Center
06:03PM 52.5667 -138.0833 292° West 450 518 38,000  Level Vancouver Center
06:04PM 52.6000 -138.2667 287° West 440 506 38,000  Level Vancouver Center
06:05PM 52.6500 -138.4500 294° West 470 541 38,000  Level Vancouver Center
06:06PM 52.7000 -138.6667 291° West 450 518 38,000  Level Vancouver Center
06:07PM 52.7167 -138.8333 279° West 460 529 38,000  Level Vancouver Center
06:09PM 52.7874 -139.1187 292° West  Level FlightAware Approximate
06:13PM 53.0000 -140.0000 301° West 457 526 38,000  Level Oakland Oceanic (ODAPS)
06:15PM 53.1167 -140.3333 301° West 452 520 38,000  Level Oakland Oceanic (ODAPS)
06:16PM 53.1538 -140.4258 301° West  Level FlightAware Approximate
06:17PM 53.2174 -140.6042 301° West  Level FlightAware Approximate
06:18PM 53.2808 -140.7831 301° West  Level FlightAware Approximate
06:19PM 53.3439 -140.9626 301° West  Level FlightAware Approximate
06:20PM 53.3943 -141.1001 300° West 457 526 38,000  Level FlightAware Transoceanic
06:21PM 53.4591 -141.2854 300° West 457 526 38,000  Level FlightAware Transoceanic
06:22PM 53.5566 -141.5790 300° West 452 520 38,000  Level FlightAware Transoceanic
06:23PM 53.6184 -141.7590 300° West 452 520 38,000  Level FlightAware Transoceanic
06:24PM 53.6800 -141.9396 300° West 452 520 38,000  Level FlightAware Transoceanic
06:25PM 53.7412 -142.1207 300° West 452 520 38,000  Level FlightAware Transoceanic
06:26PM 53.8022 -142.3023 300° West 452 520 38,000  Level FlightAware Transoceanic
06:27PM 53.8629 -142.4845 299° West 452 520 38,000  Level FlightAware Transoceanic
06:28PM 53.9233 -142.6672 299° West 452 520 38,000  Level FlightAware Transoceanic
06:29PM 53.9834 -142.8504 299° West 452 520 38,000  Level FlightAware Transoceanic
06:29PM 53.9667 -142.7833 299° West 436 502 38,000  Level Oakland Oceanic (ODAPS)
06:30PM 54.0433 -143.0341 299° West 452 520 38,000  Level FlightAware Transoceanic
06:31PM 54.1029 -143.2184 299° West 452 520 38,000  Level FlightAware Transoceanic
06:32PM 54.1622 -143.4032 299° West 452 520 38,000  Level FlightAware Transoceanic
06:33PM 54.2212 -143.5885 298° West 452 520 38,000  Level FlightAware Transoceanic
06:34PM 54.2799 -143.7744 298° West 452 520 38,000  Level FlightAware Transoceanic
06:35PM 54.3155 -143.8740 298° West 436 502 38,000  Level FlightAware Transoceanic
06:36PM 54.3727 -144.0576 298° West 436 502 38,000  Level FlightAware Transoceanic
06:37PM 54.4296 -144.2416 298° West 436 502 38,000  Level FlightAware Transoceanic
06:38PM 54.4862 -144.4262 298° West 436 502 38,000  Level FlightAware Transoceanic
06:39PM 54.5426 -144.6113 298° West 436 502 38,000  Level FlightAware Transoceanic
06:40PM 54.5986 -144.7969 297° West 436 502 38,000  Level FlightAware Transoceanic
06:41PM 54.6544 -144.9830 297° West 436 502 38,000  Level FlightAware Transoceanic
06:42PM 54.7099 -145.1697 297° West 436 502 38,000  Level FlightAware Transoceanic
06:43PM 54.7651 -145.3568 297° West 436 502 38,000  Level FlightAware Transoceanic
06:43PM 54.7500 -145.3333 297° West 447 514 38,000  Level Oakland Oceanic (ODAPS)
06:44PM 54.8200 -145.5445 297° West 436 502 38,000  Level FlightAware Transoceanic
06:45PM 54.8746 -145.7326 297° West 436 502 38,000  Level FlightAware Transoceanic
06:46PM 54.9289 -145.9213 297° West 436 502 38,000  Level FlightAware Transoceanic
06:47PM 54.9830 -146.1105 296° West 436 502 38,000  Level FlightAware Transoceanic
06:48PM 55.0367 -146.3002 296° West 436 502 38,000  Level FlightAware Transoceanic
06:49PM 55.0790 -146.4723 296° West 447 514 38,000  Level FlightAware Transoceanic
06:50PM 55.1328 -146.6639 296° West 447 514 38,000  Level FlightAware Transoceanic
06:51PM 55.1863 -146.8560 296° West 447 514 38,000  Level FlightAware Transoceanic
06:52PM 55.2395 -147.0487 296° West 447 514 38,000  Level FlightAware Transoceanic
06:53PM 55.2924 -147.2419 296° West 447 514 38,000  Level FlightAware Transoceanic
06:54PM 55.3449 -147.4356 295° West 447 514 38,000  Level FlightAware Transoceanic
06:55PM 55.3972 -147.6298 295° West 447 514 38,000  Level FlightAware Transoceanic
06:56PM 55.4492 -147.8245 295° West 447 514 38,000  Level FlightAware Transoceanic
06:57PM 55.5008 -148.0197 295° West 447 514 38,000  Level FlightAware Transoceanic
06:57PM 55.5167 -148.0667 295° West 462 532 38,000  Level Oakland Oceanic (ODAPS)
06:58PM 55.5522 -148.2155 295° West 447 514 38,000  Level FlightAware Transoceanic
06:59PM 55.6032 -148.4117 295° West 447 514 38,000  Level FlightAware Transoceanic
07:00PM 55.6539 -148.6085 294° West 447 514 38,000  Level FlightAware Transoceanic
07:01PM 55.7043 -148.8058 294° West 447 514 38,000  Level FlightAware Transoceanic
07:02PM 55.7544 -149.0035 294° West 447 514 38,000  Level FlightAware Transoceanic
07:03PM 55.8423 -149.3502 294° West 462 532 38,000  Level FlightAware Transoceanic
07:04PM 55.8952 -149.5662 294° West 462 532 38,000  Level FlightAware Transoceanic
07:05PM 55.9478 -149.7828 293° West 462 532 38,000  Level FlightAware Transoceanic
07:06PM 56.0000 -150.0000 284° West 462 532 38,000  Level FlightAware Transoceanic
07:06PM 56.0000 -150.0000 284° West 454 522 38,000  Level Oakland Oceanic (ODAPS)
07:07PM 56.0315 -150.2208 284° West 462 532 38,000  Level FlightAware Transoceanic
07:08PM 56.0626 -150.4419 284° West 462 532 38,000  Level FlightAware Transoceanic
07:09PM 56.0933 -150.6634 284° West 462 532 38,000  Level FlightAware Transoceanic
07:10PM 56.1237 -150.8852 284° West 462 532 38,000  Level FlightAware Transoceanic
07:11PM 56.1536 -151.1074 283° West 462 532 38,000  Level FlightAware Transoceanic
07:11PM 56.1333 -151.0000 284° West 464 534 38,000  Level Oakland Oceanic (ODAPS)
07:12PM 56.1792 -151.3002 283° West 454 522 38,000  Level FlightAware Transoceanic
07:13PM 56.2077 -151.5181 283° West 454 522 38,000  Level FlightAware Transoceanic
07:14PM 56.2359 -151.7363 283° West 454 522 38,000  Level FlightAware Transoceanic
07:15PM 56.2637 -151.9548 283° West 454 522 38,000  Level FlightAware Transoceanic
07:16PM 56.2911 -152.1736 283° West 454 522 38,000  Level FlightAware Transoceanic
07:17PM 56.3086 -152.3557 283° West 464 534 38,000  Level FlightAware Transoceanic
07:18PM 56.3363 -152.5828 282° West 464 534 38,000  Level FlightAware Transoceanic
07:19PM 56.3637 -152.8103 282° West 464 534 38,000  Level FlightAware Transoceanic
07:20PM 56.3906 -153.0381 282° West 464 534 38,000  Level FlightAware Transoceanic
07:21PM 56.4171 -153.2662 282° West 464 534 38,000  Level FlightAware Transoceanic
07:22PM 56.4432 -153.4946 282° West 464 534 38,000  Level FlightAware Transoceanic
07:22PM 56.4500 -153.5500 281° West 460 529 38,000  Level Anchorage Center
07:23PM 56.4689 -153.7233 281° West 464 534 38,000  Level FlightAware Transoceanic
07:23PM 56.4667 -153.7833 277° West 460 529 38,000  Level Anchorage Center
07:24PM 56.4941 -153.9524 281° West 464 534 38,000  Level FlightAware Transoceanic
07:24PM 56.5000 -154.0000 286° West 450 518 38,000  Level Anchorage Center
07:25PM 56.5190 -154.1817 281° West 464 534 38,000  Level FlightAware Transoceanic
07:25PM 56.5167 -154.2333 277° West 460 529 38,000  Level Anchorage Center
07:26PM 56.5434 -154.4114 281° West 464 534 38,000  Level FlightAware Transoceanic
07:26PM 56.5500 -154.4667 285° West 460 529 38,000  Level Anchorage Center
07:27PM 56.5674 -154.6413 281° West 464 534 38,000  Level FlightAware Transoceanic
07:28PM 56.5833 -154.9333 278° West 460 529 38,000  Level Anchorage Center
07:29PM 56.6167 -155.1500 286° West 460 529 38,000  Level Anchorage Center
07:30PM 56.6333 -155.3833 277° West 460 529 38,000  Level Anchorage Center
07:31PM 56.6500 -155.6167 277° West 460 529 38,000  Level Anchorage Center
07:32PM 56.6833 -155.8500 285° West 460 529 38,000  Level Anchorage Center
07:33PM 56.7000 -156.0833 278° West 470 541 38,000  Level Anchorage Center
07:34PM 56.7167 -156.3167 278° West 460 529 38,000  Level Anchorage Center
07:35PM 56.7500 -156.5500 285° West 470 541 38,000  Level Anchorage Center
07:36PM 56.7667 -156.8000 277° West 470 541 38,000  Level Anchorage Center
07:37PM 56.7833 -157.0333 278° West 470 541 38,000  Level Anchorage Center
07:38PM 56.8000 -157.2667 278° West 470 541 38,000  Level Anchorage Center
07:39PM 56.8167 -157.5000 278° West 470 541 38,000  Level Anchorage Center
07:40PM 56.8333 -157.7500 277° West 470 541 38,000  Level Anchorage Center
07:41PM 56.8500 -157.9833 278° West 460 529 38,000  Level Anchorage Center
07:42PM 56.8667 -158.2167 278° West 460 529 38,000  Level Anchorage Center
07:43PM 56.8833 -158.4500 278° West 460 529 38,000  Level Anchorage Center
07:44PM 56.9000 -158.7000 277° West 470 541 38,000  Level Anchorage Center
07:45PM 56.9167 -158.9333 278° West 470 541 38,000  Level Anchorage Center
07:46PM 56.9333 -159.1667 278° West 470 541 38,000  Level Anchorage Center
07:47PM 56.9500 -159.4167 277° West 470 541 38,000  Level Anchorage Center
07:48PM 56.9667 -159.7000 276° West 480 552 38,000  Level Anchorage Center
07:49PM 56.9833 -159.9333 278° West 470 541 38,000  Level Anchorage Center
07:50PM 57.0000 -160.1833 277° West 470 541 38,000  Level Anchorage Center
07:51PM 57.0167 -160.4167 278° West 470 541 38,000 420 Level Anchorage Center
07:52PM 57.0333 -160.6667 277° West 470 541 38,900 780 Climbing Anchorage Center
07:53PM 57.0333 -160.9000 270° West 470 541 39,600 540 Climbing Anchorage Center
07:54PM 57.0500 -161.1500 277° West 470 541 40,000 180 Climbing Anchorage Center
07:55PM 57.0667 -161.4000 277° West 480 552 40,000  Level Anchorage Center
07:56PM 57.0667 -161.6333 270° West 470 541 40,000  Level Anchorage Center
07:57PM 57.0833 -161.8833 277° West 470 541 40,000  Level Anchorage Center
07:58PM 57.1000 -162.1167 278° West 470 541 40,000  Level Anchorage Center
07:59PM 57.1000 -162.3667 270° West 480 552 40,000  Level Anchorage Center
08:00PM 57.1167 -162.6167 277° West 470 541 40,000  Level Anchorage Center
08:01PM 57.1167 -162.8667 270° West 470 541 40,000  Level Anchorage Center
08:02PM 57.1333 -163.1000 278° West 470 541 40,000  Level Anchorage Center
08:03PM 57.1333 -163.3500 270° West 470 541 40,000  Level Anchorage Center
08:04PM 57.1333 -163.6000 270° West 470 541 40,000  Level Anchorage Center
08:05PM 57.1500 -163.8500 277° West 470 541 40,000  Level Anchorage Center
08:06PM 57.1500 -164.0833 270° West 470 541 40,000  Level Anchorage Center
08:07PM 57.1667 -164.2833 279° West 470 541 40,000  Level Anchorage Center
08:08PM 57.1667 -164.5333 270° West 480 552 40,000  Level Anchorage Center
08:09PM 57.1667 -164.7833 270° West 470 541 40,000  Level Anchorage Center
08:10PM 57.1667 -165.0167 270° West 470 541 40,000  Level Anchorage Center
08:11PM 57.1833 -165.2667 277° West 480 552 40,000  Level Anchorage Center
08:12PM 57.1833 -165.5000 270° West 460 529 40,000  Level Anchorage Center
08:13PM 57.1833 -165.7333 270° West 470 541 40,000  Level Anchorage Center
08:14PM 57.1833 -165.9833 270° West 470 541 40,000  Level Anchorage Center
08:15PM 57.1833 -166.2333 270° West 470 541 40,000  Level Anchorage Center
08:16PM 57.1833 -166.4833 270° West 470 541 40,000  Level Anchorage Center
08:17PM 57.1833 -166.7167 270° West 480 552 40,000  Level Anchorage Center
08:18PM 57.1833 -166.9667 270° West 480 552 40,000  Level Anchorage Center
08:19PM 57.1833 -167.2333 270° West 490 564 40,000  Level Anchorage Center
08:20PM 57.1833 -167.4833 270° West 480 552 40,000  Level Anchorage Center
08:21PM 57.1833 -167.7333 270° West 480 552 40,000  Level Anchorage Center
08:22PM 57.1833 -167.9833 270° West 480 552 40,000  Level Anchorage Center
08:23PM 57.1833 -168.2333 270° West 480 552 40,000  Level Anchorage Center
08:24PM 57.1833 -168.4667 270° West 470 541 40,000  Level Anchorage Center
08:25PM 57.1833 -168.7167 270° West 480 552 40,000  Level Anchorage Center
08:26PM 57.1667 -168.9833 264° West 480 552 40,000  Level Anchorage Center
08:27PM 57.1667 -169.2167 270° West 480 552 40,000  Level Anchorage Center
08:28PM 57.1667 -169.4833 270° West 480 552 40,000  Level Anchorage Center
08:29PM 57.1667 -169.7333 270° West 490 564 40,000  Level Anchorage Center
08:30PM 57.1500 -169.9833 263° West 490 564 40,000  Level Anchorage Center
08:31PM 57.1500 -170.2333 265° West 486 559 40,000  Level Anchorage Center
08:33PM 57.1167 -170.8500 263° West 480 552 40,000  Level Anchorage Center
08:34PM 57.1000 -171.1000 263° West 480 552 40,000  Level Anchorage Center
08:35PM 57.0833 -171.3333 263° West 480 552 40,000  Level Anchorage Center
08:36PM 57.0667 -171.5833 263° West 480 552 40,000  Level Anchorage Center
08:37PM 57.0500 -171.8333 263° West 480 552 40,000  Level Anchorage Center
08:38PM 57.0542 -171.9345 263° West 486 559 40,000  Level FlightAware Transoceanic
08:38PM 57.0333 -172.0833 263° West 480 552 40,000  Level Anchorage Center
08:39PM 57.0386 -172.1768 263° West 486 559 40,000  Level FlightAware Transoceanic
08:39PM 57.0167 -172.3333 263° West 480 552 40,000  Level Anchorage Center
08:40PM 57.0167 -172.5333 270° West 480 552 40,000  Level Anchorage Center
08:41PM 57.0000 -172.7667 263° West 490 564 40,000  Level Anchorage Center
08:42PM 56.9833 -173.0167 263° West 480 552 40,000  Level Anchorage Center
08:43PM 56.9500 -173.2667 256° West 480 552 40,000  Level Anchorage Center
08:44PM 56.9333 -173.5167 263° West 490 564 40,000  Level Anchorage Center
08:45PM 56.9167 -173.7667 263° West 480 552 40,000  Level Anchorage Center
08:46PM 56.9000 -174.0000 263° West 490 564 40,000  Level Anchorage Center
08:47PM 56.8833 -174.2500 263° West 480 552 40,000  Level Anchorage Center
08:48PM 56.8667 -174.5000 263° West 480 552 40,000  Level Anchorage Center
08:49PM 56.8500 -174.7500 263° West 490 564 40,000  Level Anchorage Center
08:50PM 56.8167 -175.0000 256° West 490 564 40,000  Level Anchorage Center
08:51PM 56.8000 -175.2333 263° West 480 552 40,000  Level Anchorage Center
08:52PM 56.7833 -175.4833 263° West 490 564 40,000  Level Anchorage Center
08:55PM 56.7636 -175.7323 262° West  Level FlightAware Approximate
08:56PM 56.7167 -176.3000 261° West 489 563 40,000  Level Anchorage Center
09:00PM 56.6500 -176.9833 260° West 488 562 40,000  Level Anchorage Center
09:02PM 56.5789 -177.7469 260° West 489 563 40,000  Level FlightAware Transoceanic
09:03PM 56.5544 -177.9870 259° West 489 563 40,000  Level FlightAware Transoceanic
09:04PM 56.5293 -178.2268 259° West 489 563 40,000  Level FlightAware Transoceanic
09:05PM 56.5038 -178.4663 259° West 489 563 40,000  Level FlightAware Transoceanic
09:06PM 56.4783 -178.6779 259° West 488 562 40,000  Level FlightAware Transoceanic
09:07PM 56.4519 -178.9187 259° West 488 562 40,000  Level FlightAware Transoceanic
09:08PM 56.4250 -179.1592 258° West 488 562 40,000  Level FlightAware Transoceanic
09:08PM 56.4167 -179.3000 258° West 485 558 40,000  Level Anchorage Center
09:09PM 56.3977 -179.3993 258° West 488 562 40,000  Level FlightAware Transoceanic
09:10PM 56.3699 -179.6391 258° West 488 562 40,000  Level FlightAware Transoceanic
09:11PM 56.3416 -179.8785 258° West 488 562 40,000  Level FlightAware Transoceanic
09:12PM 56.3129 179.8824 258° West 488 562 40,000  Level FlightAware Transoceanic
09:13PM 56.2837 179.6437 257° West 488 562 40,000  Level FlightAware Transoceanic
09:14PM 56.2541 179.4054 257° West 488 562 40,000  Level FlightAware Transoceanic
09:15PM 56.2197 179.1092 257° West 485 558 40,000  Level FlightAware Transoceanic
09:16PM 56.1899 178.8833 257° West 485 558 40,000  Level FlightAware Transoceanic
09:17PM 56.1597 178.6578 256° West 485 558 40,000  Level FlightAware Transoceanic
09:18PM 56.1291 178.4326 256° West 485 558 40,000  Level FlightAware Transoceanic
09:18PM 56.1333 178.4667 256° West 485 558 40,000  Level Anchorage Center
09:19PM 56.0981 178.2078 256° West 485 558 40,000  Level FlightAware Transoceanic
09:20PM 56.0667 177.9833 254° West 485 558 40,000  Level FlightAware Transoceanic
09:20PM 56.0667 177.9833 254° West 483 556 40,000  Level Anchorage Center
09:21PM 56.0300 177.7551 254° West 485 558 40,000  Level FlightAware Transoceanic
09:22PM 55.9929 177.5273 254° West 485 558 40,000  Level FlightAware Transoceanic
09:23PM 55.9554 177.3000 253° West 485 558 40,000  Level FlightAware Transoceanic
09:24PM 55.9229 177.1055 253° West 485 558 40,000  Level FlightAware Transoceanic
09:25PM 55.8860 176.8870 253° West 485 558 40,000  Level FlightAware Transoceanic
09:25PM 55.8500 176.7667 252° West 470 541 40,000  Level Anchorage Center
09:26PM 55.8404 176.6206 253° West 483 556 40,000  Level FlightAware Transoceanic
09:26PM 55.8167 176.5833 252° West 460 529 40,000  Level Anchorage Center
09:27PM 55.8012 176.3950 253° West 483 556 40,000  Level FlightAware Transoceanic
09:27PM 55.7833 176.3167 258° West 480 552 40,000  Level Anchorage Center
09:28PM 55.7617 176.1699 253° West 483 556 40,000  Level FlightAware Transoceanic
09:28PM 55.7333 176.1167 246° West 480 552 40,000  Level Anchorage Center
09:29PM 55.7217 175.9453 252° West 483 556 40,000  Level FlightAware Transoceanic
09:29PM 55.7000 175.8667 257° West 480 552 40,000  Level Anchorage Center
09:30PM 55.6813 175.7211 252° West 483 556 40,000  Level FlightAware Transoceanic
09:30PM 55.6500 175.6333 249° West 480 552 40,000  Level Anchorage Center
09:31PM 55.6167 175.4333 254° West 470 541 40,000  Level Anchorage Center
09:32PM 55.5667 175.2000 249° West 470 541 40,000  Level Anchorage Center
09:33PM 55.5333 175.0167 252° West 470 541 40,000  Level Anchorage Center
09:34PM 55.5000 174.7667 257° West 480 552 40,000  Level Anchorage Center
09:35PM 55.4500 174.5667 246° West 480 552 40,000  Level Anchorage Center
09:36PM 55.4167 174.3333 256° West 480 552 40,000  Level Anchorage Center
09:37PM 55.3667 174.0833 251° West 480 552 40,000  Level Anchorage Center
09:38PM 55.3167 173.9000 244° Southwest 480 552 40,000  Level Anchorage Center
09:39PM 55.2667 173.6500 251° West 480 552 40,000  Level Anchorage Center
09:40PM 55.2333 173.4667 252° West 480 552 40,000  Level Anchorage Center
09:41PM 55.1833 173.2167 251° West 480 552 40,000  Level Anchorage Center
09:42PM 55.1500 173.0333 252° West 480 552 40,000  Level Anchorage Center
09:43PM 55.1000 172.8000 250° West 470 541 40,000  Level Anchorage Center
09:44PM 55.0500 172.6167 245° Southwest 470 541 40,000  Level Anchorage Center
09:45PM 55.0167 172.3833 256° West 460 529 40,000  Level Anchorage Center
09:46PM 54.9500 172.1333 245° Southwest 480 552 40,000  Level Anchorage Center
09:47PM 54.9167 171.9500 253° West 470 541 40,000  Level Anchorage Center
09:48PM 54.8333 171.7500 234° Southwest 470 541 40,000  Level Anchorage Center
09:49PM 54.7667 171.5833 235° Southwest 480 552 40,000  Level Anchorage Center
09:50PM 54.6833 171.3833 234° Southwest 490 564 40,000  Level Anchorage Center
09:51PM 54.6000 171.2167 229° Southwest 490 564 40,000  Level Anchorage Center
09:52PM 54.5167 171.0167 234° Southwest 490 564 40,000  Level Anchorage Center
09:53PM 54.4333 170.8000 237° Southwest 490 564 40,000  Level Anchorage Center
09:54PM 54.3667 170.6500 233° Southwest 480 552 40,000  Level Anchorage Center
09:55PM 54.2833 170.4500 235° Southwest 480 552 40,000  Level Anchorage Center
09:56PM 54.2167 170.2833 236° Southwest 480 552 40,000  Level Anchorage Center
09:57PM 54.1333 170.1000 232° Southwest 480 552 40,000  Level Anchorage Center
09:58PM 54.0500 169.9333 230° Southwest 480 552 40,000  Level Anchorage Center
09:59PM 53.9667 169.7500 232° Southwest 480 552 40,000  Level Anchorage Center
10:00PM 53.9000 169.5833 236° Southwest 470 541 40,000  Level Anchorage Center
10:01PM 53.8167 169.4000 232° Southwest 490 564 40,000  Level Anchorage Center
10:02PM 53.7333 169.2000 235° Southwest 480 552 40,000  Level Anchorage Center
10:03PM 53.6667 169.0333 236° Southwest 490 564 40,000  Level Anchorage Center
10:04PM 53.6000 168.8167 243° Southwest 460 529 40,000  Level Anchorage Center
10:05PM 53.5500 168.6500 243° Southwest 470 541 40,000  Level Anchorage Center
10:06PM 53.4667 168.4500 235° Southwest 460 529 40,000  Level Anchorage Center
10:07PM 53.4167 168.2333 239° Southwest 464 534 40,000  Level Anchorage Center
10:14PM 53.0090 167.0996 239° Southwest 464 534 40,000  Level FlightAware Transoceanic
10:15PM 52.9400 166.9127 238° Southwest 464 534 40,000  Level FlightAware Transoceanic
10:16PM 52.8708 166.7264 238° Southwest 464 534 40,000  Level FlightAware Transoceanic
10:16PM 52.8833 166.7500 238° Southwest 453 521 40,000  Level Anchorage Center
10:17PM 52.8012 166.5407 238° Southwest 464 534 40,000  Level FlightAware Transoceanic
10:18PM 52.7313 166.3557 238° Southwest 464 534 40,000  Level FlightAware Transoceanic
10:19PM 52.6612 166.1712 238° Southwest 464 534 40,000  Level FlightAware Transoceanic
10:20PM 52.5908 165.9873 238° Southwest 464 534 40,000  Level FlightAware Transoceanic
10:21PM 52.5201 165.8040 238° Southwest 464 534 40,000  Level FlightAware Transoceanic
10:22PM 52.4813 165.6975 237° Southwest 453 521 40,000  Level FlightAware Transoceanic
10:23PM 52.4134 165.5239 237° Southwest 453 521 40,000  Level FlightAware Transoceanic
10:24PM 52.3452 165.3509 237° Southwest 453 521 40,000  Level FlightAware Transoceanic
10:25PM 52.2768 165.1784 237° Southwest 453 521 40,000  Level FlightAware Transoceanic
10:25PM 52.2333 165.0667 237° Southwest 454 522 40,000  Level Anchorage Center
10:26PM 52.2081 165.0065 237° Southwest 453 521 40,000  Level FlightAware Transoceanic
10:27PM 52.1392 164.8351 237° Southwest 453 521 40,000  Level FlightAware Transoceanic
10:28PM 52.0701 164.6642 237° Southwest 453 521 40,000  Level FlightAware Transoceanic
10:29PM 52.0007 164.4939 236° Southwest 453 521 40,000  Level FlightAware Transoceanic
10:30PM 51.9310 164.3240 236° Southwest 453 521 40,000  Level FlightAware Transoceanic
10:31PM 51.8463 164.1181 236° Southwest 454 522 40,000  Level FlightAware Transoceanic
10:32PM 51.7811 163.9616 236° Southwest 454 522 40,000  Level FlightAware Transoceanic
10:33PM 51.7156 163.8056 236° Southwest 454 522 40,000  Level FlightAware Transoceanic
10:33PM 51.6500 163.6500 236° Southwest 458 527 40,000  Level Anchorage Center
10:34PM 51.6500 163.6500 236° Southwest 454 522 40,000  Level FlightAware Transoceanic
10:35PM 51.5813 163.4843 236° Southwest 454 522 40,000  Level FlightAware Transoceanic
10:35PM 51.5667 163.4333 236° Southwest 462 532 40,000  Level Anchorage Center
10:36PM 51.5123 163.3192 236° Southwest 454 522 40,000  Level FlightAware Transoceanic
10:37PM 51.4431 163.1546 236° Southwest 454 522 40,000  Level FlightAware Transoceanic
10:38PM 51.3737 162.9904 236° Southwest 454 522 40,000  Level FlightAware Transoceanic
10:39PM 51.3041 162.8268 236° Southwest 454 522 40,000  Level FlightAware Transoceanic
10:40PM 51.2181 162.6260 236° Southwest 458 527 40,000  Level FlightAware Transoceanic
10:41PM 51.1358 162.4238 235° Southwest 462 532 40,000  Level FlightAware Transoceanic
10:42PM 51.0632 162.2574 235° Southwest 462 532 40,000  Level FlightAware Transoceanic
10:43PM 50.9903 162.0915 235° Southwest 462 532 40,000  Level FlightAware Transoceanic
10:44PM 50.9172 161.9262 235° Southwest 462 532 40,000  Level FlightAware Transoceanic
10:44PM 50.8833 161.8667 235° Southwest 458 527 40,000  Level Anchorage Center
10:45PM 50.8439 161.7613 235° Southwest 462 532 40,000  Level FlightAware Transoceanic
10:46PM 50.7703 161.5970 235° Southwest 462 532 40,000  Level FlightAware Transoceanic
10:47PM 50.6965 161.4332 234° Southwest 462 532 40,000  Level FlightAware Transoceanic
10:48PM 50.6225 161.2699 234° Southwest 462 532 40,000  Level FlightAware Transoceanic
10:49PM 50.5482 161.1071 234° Southwest 462 532 40,000  Level FlightAware Transoceanic
10:50PM 50.4737 160.9448 234° Southwest 462 532 40,000  Level FlightAware Transoceanic
10:51PM 50.3796 160.7504 234° Southwest 458 527 40,000  Level FlightAware Transoceanic
10:52PM 50.3068 160.5929 234° Southwest 458 527 40,000  Level FlightAware Transoceanic
10:53PM 50.2338 160.4359 234° Southwest 458 527 40,000  Level FlightAware Transoceanic
10:54PM 50.1605 160.2793 234° Southwest 458 527 40,000  Level FlightAware Transoceanic
10:54PM 50.1833 160.3333 234° Southwest 453 521 40,000  Level Anchorage Center
10:55PM 50.0871 160.1232 234° Southwest 458 527 40,000  Level FlightAware Transoceanic
10:56PM 50.0134 159.9676 234° Southwest 458 527 40,000  Level FlightAware Transoceanic
10:57PM 49.9395 159.8125 233° Southwest 458 527 40,000  Level FlightAware Transoceanic
10:58PM 49.8654 159.6579 233° Southwest 458 527 40,000  Level FlightAware Transoceanic
10:59PM 49.7911 159.5037 233° Southwest 458 527 40,000  Level FlightAware Transoceanic
11:00PM 49.7167 159.3500 233° Southwest 453 521 40,000  Level FlightAware Transoceanic
11:01PM 49.6445 159.2026 233° Southwest 453 521 40,000  Level FlightAware Transoceanic
11:02PM 49.5721 159.0556 233° Southwest 453 521 40,000  Level FlightAware Transoceanic
11:03PM 49.4995 158.9090 233° Southwest 453 521 40,000  Level FlightAware Transoceanic
11:04PM 49.4267 158.7629 232° Southwest 453 521 40,000  Level FlightAware Transoceanic
11:05PM 49.3538 158.6172 232° Southwest 453 521 40,000  Level FlightAware Transoceanic
11:06PM 49.2806 158.4719 232° Southwest 453 521 40,000  Level FlightAware Transoceanic
11:07PM 49.2073 158.3271 232° Southwest 453 521 40,000  Level FlightAware Transoceanic
11:08PM 49.1338 158.1827 232° Southwest 453 521 40,000  Level FlightAware Transoceanic
11:09PM 49.0601 158.0387 232° Southwest 453 521 40,000  Level FlightAware Transoceanic
11:10PM 48.9863 157.8952 232° Southwest 453 521 40,000  Level FlightAware Transoceanic
11:11PM 48.9123 157.7520 232° Southwest 453 521 40,000  Level FlightAware Transoceanic
11:12PM 48.8381 157.6093 232° Southwest 453 521 40,000  Level FlightAware Transoceanic
11:13PM 48.7637 157.4671 232° Southwest 453 521 40,000  Level FlightAware Transoceanic
11:14PM 48.6891 157.3252 231° Southwest 453 521 40,000  Level FlightAware Transoceanic
11:15PM 48.6144 157.1838 231° Southwest 453 521 40,000  Level FlightAware Transoceanic
11:16PM 48.5395 157.0428 231° Southwest 453 521 40,000  Level FlightAware Transoceanic
11:17PM 48.4644 156.9022 231° Southwest 453 521 40,000  Level FlightAware Transoceanic
11:18PM 48.3891 156.7620 231° Southwest 453 521 40,000  Level FlightAware Transoceanic
11:19PM 48.3137 156.6222 231° Southwest 453 521 40,000  Level FlightAware Transoceanic
11:20PM 48.2381 156.4829 231° Southwest 453 521 40,000  Level FlightAware Transoceanic
11:21PM 48.1624 156.3439 231° Southwest 453 521 40,000  Level FlightAware Transoceanic
11:22PM 48.0865 156.2054 231° Southwest 453 521 40,000  Level FlightAware Transoceanic
11:23PM 48.0104 156.0673 230° Southwest 453 521 40,000  Level FlightAware Transoceanic
11:24PM 47.9341 155.9296 230° Southwest 453 521 40,000  Level FlightAware Transoceanic
11:25PM 47.8577 155.7923 230° Southwest 453 521 40,000  Level FlightAware Transoceanic
11:26PM 47.7811 155.6553 230° Southwest 453 521 40,000  Level FlightAware Transoceanic
11:27PM 47.7044 155.5188 230° Southwest 453 521 40,000  Level FlightAware Transoceanic
11:28PM 47.6275 155.3828 230° Southwest 453 521 40,000  Level FlightAware Transoceanic
11:29PM 47.5504 155.2471 230° Southwest 453 521 40,000  Level FlightAware Transoceanic
11:30PM 47.4732 155.1117 230° Southwest 453 521 40,000  Level FlightAware Transoceanic
11:31PM 47.3958 154.9768 230° Southwest 453 521 40,000  Level FlightAware Transoceanic
11:32PM 47.3183 154.8423 230° Southwest 453 521 40,000  Level FlightAware Transoceanic
11:33PM 47.2406 154.7082 229° Southwest 453 521 40,000  Level FlightAware Transoceanic
11:34PM 47.1627 154.5745 229° Southwest 453 521 40,000  Level FlightAware Transoceanic
11:35PM 47.0847 154.4412 229° Southwest 453 521 40,000  Level FlightAware Transoceanic
11:36PM 47.0066 154.3082 229° Southwest 453 521 40,000  Level FlightAware Transoceanic
11:37PM 46.9283 154.1757 229° Southwest 453 521 40,000  Level FlightAware Transoceanic
11:38PM 46.8498 154.0435 229° Southwest 453 521 40,000  Level FlightAware Transoceanic
11:39PM 46.7712 153.9117 229° Southwest 453 521 40,000  Level FlightAware Transoceanic
11:40PM 46.6924 153.7803 229° Southwest 453 521 40,000  Level FlightAware Transoceanic
11:41PM 46.6135 153.6494 229° Southwest 453 521 40,000  Level FlightAware Transoceanic
11:42PM 46.5344 153.5187 229° Southwest 453 521 40,000  Level FlightAware Transoceanic
11:43PM 46.4552 153.3885 228° Southwest 453 521 40,000  Level FlightAware Transoceanic
11:44PM 46.3758 153.2586 228° Southwest 453 521 40,000  Level FlightAware Transoceanic
11:45PM 46.2963 153.1291 228° Southwest 453 521 40,000  Level FlightAware Transoceanic
11:46PM 46.2131 152.9943 228° Southwest  Level FlightAware Approximate
11:47PM 46.2095 152.9886 228° Southwest  Level FlightAware Approximate
11:48PM 46.1257 152.8549 228° Southwest  Level FlightAware Approximate
11:49PM 46.0417 152.7216 228° Southwest  Level FlightAware Approximate
11:50PM 45.9575 152.5887 228° Southwest  Level FlightAware Approximate
11:51PM 45.8731 152.4561 228° Southwest  Level FlightAware Approximate
11:52PM 45.7887 152.3240 228° Southwest  Level FlightAware Approximate
11:53PM 45.7040 152.1923 227° Southwest  Level FlightAware Approximate
11:54PM 45.6192 152.0610 227° Southwest  Level FlightAware Approximate
11:55PM 45.5343 151.9301 227° Southwest  Level FlightAware Approximate
11:56PM 45.4492 151.7995 227° Southwest  Level FlightAware Approximate
11:57PM 45.3640 151.6694 227° Southwest  Level FlightAware Approximate
11:58PM 45.2786 151.5397 227° Southwest  Level FlightAware Approximate
11:59PM 45.1931 151.4103 227° Southwest  Level FlightAware Approximate
12:00AM 45.1074 151.2814 227° Southwest  Level FlightAware Approximate
12:01AM 45.0215 151.1528 227° Southwest  Level FlightAware Approximate
12:02AM 44.9356 151.0246 227° Southwest  Level FlightAware Approximate
12:03AM 44.8495 150.8968 226° Southwest  Level FlightAware Approximate
12:04AM 44.7632 150.7694 226° Southwest  Level FlightAware Approximate
12:05AM 44.6768 150.6423 226° Southwest  Level FlightAware Approximate
12:06AM 44.5903 150.5157 226° Southwest  Level FlightAware Approximate
12:07AM 44.5036 150.3894 226° Southwest  Level FlightAware Approximate
12:08AM 44.4177 150.2647 226° Southwest  Level FlightAware Approximate
12:09AM 44.3316 150.1405 226° Southwest  Level FlightAware Approximate
12:10AM 44.2454 150.0166 226° Southwest  Level FlightAware Approximate
12:11AM 44.1591 149.8930 226° Southwest  Level FlightAware Approximate
12:12AM 44.0727 149.7698 226° Southwest  Level FlightAware Approximate
12:13AM 43.9860 149.6470 226° Southwest  Level FlightAware Approximate
12:14AM 43.8993 149.5245 226° Southwest  Level FlightAware Approximate
12:15AM 43.8125 149.4024 225° Southwest  Level FlightAware Approximate
12:16AM 43.7255 149.2806 225° Southwest  Level FlightAware Approximate
12:17AM 43.6384 149.1592 225° Southwest  Level FlightAware Approximate
12:18AM 43.5511 149.0382 225° Southwest  Level FlightAware Approximate
12:19AM 43.4637 148.9175 225° Southwest  Level FlightAware Approximate
12:19AM 43.4400 148.8850 225° Southwest 410 472 40,000  Level FlightAware
12:19AM 43.3970 148.8250 225° Southwest 412 474 40,000  Level FlightAware
12:20AM 43.3460 148.7550 225° Southwest 410 472 40,000  Level FlightAware
12:20AM 43.2920 148.6810 225° Southwest 410 472 40,000  Level FlightAware
12:21AM 43.2450 148.6170 225° Southwest 411 473 40,000  Level FlightAware
12:22AM 43.1910 148.5440 225° Southwest 410 472 40,000  Level FlightAware
12:22AM 43.1510 148.4890 225° Southwest 409 471 40,000  Level FlightAware
12:23AM 43.1050 148.4270 225° Southwest 409 471 40,000  Level FlightAware
12:23AM 43.0570 148.3620 225° Southwest 410 472 40,000  Level FlightAware
12:24AM 43.0100 148.2980 225° Southwest 410 472 40,000  Level FlightAware
12:24AM 42.9630 148.2350 224° Southwest 410 472 40,000  Level FlightAware
12:25AM 42.9160 148.1720 224° Southwest 409 471 40,000  Level FlightAware
12:26AM 42.8610 148.0980 225° Southwest 409 471 40,000  Level FlightAware
12:26AM 42.8210 148.0450 224° Southwest 408 470 40,000  Level FlightAware
12:27AM 42.7760 147.9840 225° Southwest 406 467 40,000  Level FlightAware
12:27AM 42.7290 147.9210 225° Southwest 405 466 40,000  Level FlightAware
12:28AM 42.6750 147.8500 224° Southwest 405 466 40,000  Level FlightAware
12:29AM 42.6340 147.7950 225° Southwest 405 466 40,000  Level FlightAware
12:29AM 42.5860 147.7330 224° Southwest 405 466 40,000  Level FlightAware
12:30AM 42.5400 147.6710 225° Southwest 403 464 40,000  Level FlightAware
12:30AM 42.4930 147.6090 224° Southwest 404 465 40,000  Level FlightAware
12:31AM 42.4470 147.5480 224° Southwest 405 466 40,000  Level FlightAware
12:31AM 42.3990 147.4860 224° Southwest 405 466 40,000  Level FlightAware
12:32AM 42.3450 147.4150 224° Southwest 406 467 40,000  Level FlightAware
12:33AM 42.3050 147.3630 224° Southwest 407 468 40,000  Level FlightAware
12:33AM 42.2580 147.3010 224° Southwest 405 466 40,000  Level FlightAware
12:34AM 42.2030 147.2300 224° Southwest 403 464 40,000  Level FlightAware
12:34AM 42.1630 147.1780 224° Southwest 403 464 40,000  Level FlightAware
12:35AM 42.1160 147.1170 224° Southwest 400 460 40,000  Level FlightAware
12:36AM 42.0710 147.0580 224° Southwest 398 458 40,000  Level FlightAware
12:36AM 42.0240 146.9980 223° Southwest 398 458 40,000  Level FlightAware
12:37AM 41.9770 146.9370 224° Southwest 391 450 40,000  Level FlightAware
12:37AM 41.9240 146.8690 224° Southwest 397 457 40,000  Level FlightAware
12:38AM 41.8840 146.8180 224° Southwest 398 458 40,000  Level FlightAware
12:38AM 41.8370 146.7580 224° Southwest 399 459 40,000  Level FlightAware
12:39AM 41.7910 146.6990 224° Southwest 400 460 40,000  Level FlightAware
12:40AM 41.7380 146.6310 224° Southwest 398 458 40,000  Level FlightAware
12:40AM 41.6980 146.5800 224° Southwest 398 458 40,000  Level FlightAware
12:41AM 41.6440 146.5110 224° Southwest 398 458 40,000  Level FlightAware
12:41AM 41.6050 146.4610 224° Southwest 399 459 40,000  Level FlightAware
12:42AM 41.5580 146.4020 223° Southwest 400 460 40,000  Level FlightAware
12:43AM 41.5040 146.3340 223° Southwest 401 461 40,000  Level FlightAware
12:43AM 41.4630 146.2820 224° Southwest 401 461 40,000  Level FlightAware
12:44AM 41.4160 146.2230 223° Southwest 401 461 40,000  Level FlightAware
12:44AM 41.3690 146.1630 224° Southwest 400 460 40,000  Level FlightAware
12:45AM 41.3150 146.0960 223° Southwest 399 459 40,000  Level FlightAware
12:45AM 41.2750 146.0460 223° Southwest 399 459 40,000  Level FlightAware
12:46AM 41.2280 145.9870 223° Southwest 399 459 40,000  Level FlightAware
12:47AM 41.1810 145.9290 223° Southwest 401 461 40,000  Level FlightAware
12:47AM 41.1340 145.8700 223° Southwest 401 461 40,000  Level FlightAware
12:48AM 41.0860 145.8110 223° Southwest 401 461 40,000  Level FlightAware
12:48AM 41.0390 145.7530 223° Southwest 401 461 40,000  Level FlightAware
12:49AM 40.9910 145.6930 223° Southwest 402 463 40,000  Level FlightAware
12:50AM 40.9380 145.6280 223° Southwest 397 457 40,000  Level FlightAware
12:50AM 40.8960 145.5760 223° Southwest 397 457 40,000  Level FlightAware
12:51AM 40.8480 145.5170 223° Southwest 397 457 40,000  Level FlightAware
12:51AM 40.8000 145.4580 223° Southwest 397 457 40,000  Level FlightAware
12:52AM 40.7530 145.4010 223° Southwest 396 456 40,000  Level FlightAware
12:52AM 40.7060 145.3440 223° Southwest 401 461 40,000  Level FlightAware
12:53AM 40.6430 145.2670 223° Southwest 399 459 40,000  Level FlightAware
12:54AM 40.5950 145.2080 223° Southwest 401 461 40,000  Level FlightAware
12:55AM 40.5370 145.1380 223° Southwest 396 456 40,000  Level FlightAware
12:55AM 40.4960 145.0880 223° Southwest 396 456 40,000  Level FlightAware
12:56AM 40.4550 145.0380 223° Southwest 396 456 40,000  Level FlightAware
12:56AM 40.3840 144.9540 222° Southwest 398 458 40,000  Level FlightAware
12:57AM 40.3430 144.9040 223° Southwest 397 457 40,000  Level FlightAware
12:58AM 40.2880 144.8380 222° Southwest 396 456 40,000  Level FlightAware
12:58AM 40.2480 144.7900 222° Southwest 397 457 40,000  Level FlightAware
12:59AM 40.1920 144.7220 223° Southwest 397 457 40,000  Level FlightAware
12:59AM 40.1510 144.6720 223° Southwest 397 457 40,000  Level FlightAware
01:00AM 40.1100 144.6220 223° Southwest 397 457 40,000  Level FlightAware
01:01AM 40.0690 144.5720 223° Southwest 397 457 40,000  Level FlightAware
01:01AM 40.0280 144.5220 223° Southwest 397 457 40,000  Level FlightAware
01:02AM 39.9870 144.4720 223° Southwest 397 457 40,000  Level FlightAware
01:02AM 39.9440 144.4200 223° Southwest 397 457 40,000  Level FlightAware
01:03AM 39.9030 144.3700 223° Southwest 397 457 40,000  Level FlightAware
01:04AM 39.8620 144.3200 223° Southwest 397 457 40,000  Level FlightAware
01:04AM 39.8200 144.2690 223° Southwest 397 457 40,000  Level FlightAware
01:05AM 39.7790 144.2190 223° Southwest 397 457 40,000  Level FlightAware
01:05AM 39.6350 144.0660 219° Southwest 40,000  Level FlightAware
01:06AM 39.5960 144.0200 222° Southwest 400 460 40,000  Level FlightAware
01:07AM 39.5360 143.9510 222° Southwest 407 468 40,000  Level FlightAware
01:07AM 39.4860 143.8930 222° Southwest 408 470 40,000  Level FlightAware
01:08AM 39.4370 143.8360 222° Southwest 410 472 40,000  Level FlightAware
01:08AM 39.3880 143.7790 222° Southwest 410 472 40,000  Level FlightAware
01:09AM 39.3390 143.7220 222° Southwest 410 472 40,000  Level FlightAware
01:10AM 39.2850 143.6600 222° Southwest 410 472 40,000  Level FlightAware
01:10AM 39.2250 143.5910 222° Southwest 412 474 40,000  Level FlightAware
01:11AM 39.1600 143.5170 221° Southwest 412 474 40,000  Level FlightAware
01:12AM 39.1110 143.4610 222° Southwest 410 472 40,000  Level FlightAware
01:12AM 39.0610 143.4040 222° Southwest 410 472 40,000  Level FlightAware
01:13AM 39.0120 143.3480 222° Southwest 409 471 40,000  Level FlightAware
01:13AM 38.9660 143.3020 218° Southwest 424 488 40,000  Level FlightAware
01:14AM 38.9280 143.2870 197° South 452 520 40,000  Level FlightAware
01:14AM 38.8560 143.2720 189° South 445 512 40,000  Level FlightAware
01:15AM 38.7870 143.2450 197° South 439 505 40,000  Level FlightAware
01:15AM 38.7200 143.2170 198° South 438 504 40,000  Level FlightAware
01:16AM 38.6660 143.1950 198° South 439 505 40,000  Level FlightAware
01:17AM 38.5850 143.1600 199° South 438 504 40,000  Level FlightAware
01:17AM 38.5180 143.1320 198° South 438 504 40,000  Level FlightAware
01:18AM 38.4520 143.1040 198° South 441 507 40,000  Level FlightAware
01:18AM 38.3720 143.0700 198° South 441 507 40,000  Level FlightAware
01:19AM 38.3140 143.0460 198° South 442 509 40,000  Level FlightAware
01:19AM 38.2450 143.0170 198° South 443 510 40,000  Level FlightAware
01:20AM 38.1770 142.9890 198° South 444 511 40,000  Level FlightAware
01:21AM 38.1090 142.9600 199° South 438 504 40,000  Level FlightAware
01:21AM 38.0400 142.9320 198° South 439 505 40,000  Level FlightAware
01:22AM 37.9720 142.9040 198° South 438 504 40,000 -540 Level FlightAware
01:22AM 37.8950 142.8720 198° South 437 503 39,400 -1,260 Descending FlightAware
01:23AM 37.8340 142.8460 199° South 441 507 38,600 -1,680 Descending FlightAware
01:24AM 37.7650 142.8180 198° South 453 521 37,600 -1,560 Descending FlightAware
01:24AM 37.6950 142.7890 198° South 453 521 36,800 -1,380 Descending FlightAware
01:25AM 37.6250 142.7600 198° South 454 522 36,000 -1,440 Descending FlightAware
01:25AM 37.5550 142.7310 198° South 455 524 35,100 -1,560 Descending FlightAware
01:26AM 37.4840 142.7030 197° South 457 526 34,200 -900 Descending FlightAware
01:27AM 37.4040 142.6700 198° South 455 524 34,000 -180 Descending FlightAware
01:27AM 37.3440 142.6450 198° South 455 524 34,000  Level FlightAware
01:28AM 37.1940 142.5840 198° South 456 525 34,000  Level FlightAware
01:29AM 37.1230 142.5550 198° South 457 526 34,000  Level FlightAware
01:30AM 37.0420 142.5230 198° South 458 527 34,000  Level FlightAware
01:30AM 36.9750 142.4960 198° South 457 526 34,000  Level FlightAware
01:31AM 36.8910 142.4620 198° South 458 527 34,000  Level FlightAware
01:31AM 36.8320 142.4380 198° South 458 527 34,000  Level FlightAware
01:32AM 36.7600 142.4090 198° South 459 528 34,000  Level FlightAware
01:32AM 36.6900 142.3810 198° South 459 528 34,000 -360 Level FlightAware
01:33AM 36.6090 142.3490 198° South 453 521 33,600 -960 Descending FlightAware
01:34AM 36.5410 142.3220 198° South 457 526 32,800 -1,380 Descending FlightAware
01:34AM 36.4680 142.2920 198° South 459 528 32,000 -1,020 Descending FlightAware
01:35AM 36.4090 142.2690 197° South 453 521 31,700 -600 Descending FlightAware
01:35AM 36.3380 142.2410 198° South 439 505 31,400 -660 Descending FlightAware
01:36AM 36.2620 142.2110 198° South 440 506 30,900 -960 Descending FlightAware
01:37AM 36.2030 142.1880 197° South 436 502 30,300 -900 Descending FlightAware
01:37AM 36.1200 142.1550 198° South 403 464 29,800 -1,020 Descending FlightAware
01:38AM 36.0530 142.1290 197° South 389 448 28,900 -1,860 Descending FlightAware
01:38AM 35.9960 142.1060 198° South 379 436 27,600 -2,580 Descending FlightAware
01:39AM 35.9370 142.0830 198° South 371 427 26,000 -2,880 Descending FlightAware
01:40AM 35.8750 142.0580 198° South 375 432 24,100 -2,700 Descending FlightAware
01:41AM 35.7970 142.0280 197° South 369 425 22,100 -2,280 Descending FlightAware
01:41AM 35.7430 142.0070 198° South 369 425 21,000 -1,680 Descending FlightAware
01:42AM 35.6830 141.9840 197° South 340 391 20,200 -1,440 Descending FlightAware
01:42AM 35.6380 141.9660 198° South 342 394 19,300 -1,680 Descending FlightAware
01:43AM 35.6070 141.9380 216° Southwest 321 369 18,600 -1,860 Descending FlightAware
01:43AM 35.5920 141.9020 243° Southwest 310 357 17,900 -1,980 Descending FlightAware
01:43AM 35.5900 141.8870 261° West 311 358 17,600 -1,740 Descending FlightAware
01:44AM 35.5860 141.8190 266° West 315 362 16,600 -1,380 Descending FlightAware
01:44AM 35.5830 141.7580 267° West 312 359 16,000 -420 Descending FlightAware
01:45AM 35.5780 141.6720 266° West 310 357 16,000 -240 Level FlightAware
01:46AM 35.5740 141.6110 265° West 311 358 15,700 -1,020 Descending FlightAware
01:46AM 35.5700 141.5290 267° West 307 353 14,700 -1,200 Descending FlightAware
01:47AM 35.5750 141.4770 277° West 299 344 14,200 -1,140 Descending FlightAware
01:47AM 35.5830 141.4580 297° West 294 338 13,900 -1,440 Descending FlightAware
01:48AM 35.6030 141.4150 300° West 291 335 13,200 -960 Descending FlightAware
01:48AM 35.6280 141.3570 298° West 295 339 12,800 -540 Descending FlightAware
01:49AM 35.6490 141.3110 299° West 290 334 12,600 -840 Descending FlightAware
01:49AM 35.6710 141.2630 299° West 283 326 11,900 -1,380 Descending FlightAware
01:50AM 35.6960 141.2070 299° West 279 321 11,000 -1,320 Descending FlightAware
01:51AM 35.7160 141.1630 299° West 276 318 10,400 -960 Descending FlightAware
01:51AM 35.7390 141.1120 299° West 251 289 9,900 -900 Descending FlightAware
01:51AM 35.7450 141.0980 298° West 252 290 9,700 -1,320 Descending FlightAware
01:52AM 35.7560 141.0720 298° West 254 292 9,200 -1,260 Descending FlightAware
01:52AM 35.7680 141.0310 290° West 259 298 8,600 -1,080 Descending FlightAware
01:53AM 35.7600 141.0060 248° West 264 304 8,300 -1,320 Descending FlightAware
01:53AM 35.7450 140.9910 219° Southwest 271 312 7,900 -1,680 Descending FlightAware
01:53AM 35.7280 140.9850 196° South 280 322 7,500 -1,620 Descending FlightAware
01:53AM 35.7030 140.9790 191° South 291 335 7,000 -1,500 Descending FlightAware
01:54AM 35.6800 140.9740 190° South 282 325 6,700 -1,140 Descending FlightAware
01:54AM 35.6640 140.9690 194° South 276 318 6,500 -780 Descending FlightAware
01:54AM 35.6550 140.9640 204° Southwest 275 316 6,400 -1,320 Descending FlightAware
01:54AM 35.6360 140.9500 211° Southwest 283 326 6,000 -1,680 Descending FlightAware
01:55AM 35.6150 140.9310 216° Southwest 277 319 5,500 -1,320 Descending FlightAware
01:55AM 35.5990 140.9060 232° Southwest 275 316 5,100 -1,500 Descending FlightAware
01:55AM 35.5850 140.8850 231° Southwest 278 320 4,600 -1,500 Descending FlightAware
01:56AM 35.5690 140.8580 234° Southwest 284 327 4,100 -1,320 Descending FlightAware
01:56AM 35.5600 140.8410 237° Southwest 288 331 3,900 -900 Descending FlightAware
01:56AM 35.5560 140.8280 249° West 278 320 3,800 -420 Descending FlightAware
01:56AM 35.5550 140.8180 263° West 270 311 3,800  Level FlightAware
01:56AM 35.5550 140.7960 270° West 260 299 3,800  Level FlightAware
01:57AM 35.5550 140.7680 270° West 258 297 3,800  Level FlightAware
01:57AM 35.5550 140.7360 270° West 255 293 3,800  Level FlightAware
01:57AM 35.5560 140.7020 272° West 255 293 3,800  Level FlightAware
01:58AM 35.5560 140.6780 270° West 254 292 3,800  Level FlightAware
01:58AM 35.5560 140.6450 270° West 251 289 3,800  Level FlightAware
01:58AM 35.5570 140.6140 272° West 234 269 3,800  Level FlightAware
01:59AM 35.5530 140.5790 262° West 216 249 3,800  Level FlightAware
01:59AM 35.5490 140.5540 259° West 200 230 3,800  Level FlightAware
02:00AM 35.5540 140.5350 288° West 177 204 3,800  Level FlightAware
02:00AM 35.5580 140.5270 302° West 168 193 3,800  Level FlightAware
02:00AM 35.5670 140.5180 321° Northwest 162 186 3,800  Level FlightAware
02:00AM 35.5720 140.5140 327° Northwest 167 192 3,800 -780 Level FlightAware
02:01AM 35.6000 140.4940 330° Northwest 164 189 3,200 -960 Descending FlightAware
02:01AM 35.6080 140.4880 329° Northwest 164 189 3,000 -840 Descending FlightAware
02:01AM 35.6240 140.4770 331° Northwest 162 186 2,700 -840 Descending FlightAware
02:02AM 35.6360 140.4680 329° Northwest 161 185 2,400 -900 Descending FlightAware
02:02AM 35.6490 140.4590 331° Northwest 163 188 2,100 -900 Descending FlightAware
02:02AM 35.6580 140.4520 328° Northwest 163 188 1,900 -900 Descending FlightAware
02:03AM 35.6710 140.4430 331° Northwest 160 184 1,600 -1,020 Descending FlightAware
02:03AM 35.6820 140.4350 329° Northwest 157 181 1,300 -900 Descending FlightAware
02:03AM 35.6930 140.4270 329° Northwest 142 163 1,100 -600 Descending FlightAware
02:04AM 35.7040 140.4190 329° Northwest 140 161 900 -660 Descending FlightAware
02:04AM 35.7130 140.4130 332° Northwest 141 162 700 -840 Descending FlightAware
02:04AM 35.7290 140.4010 329° Northwest 141 162 300 -840 Descending FlightAware
02:05AM 35.7390 140.3940 330° Northwest 139 160 100 -300 Descending FlightAware
02:05AM 35.7510 140.3850 329° Northwest 139 160 100  Level FlightAware